Bannock, OH (43972)

8:12 AM EDT on August 30, 2015 (GMT -0400)
Morristown, Ohio | | Change Station
CLOSE
Current Station
Personal Weather Station
Location: Belmont, OH
Elevation: 1283 ft
Nearby Weather Stations

Elev 1283 ft 40.08 °N, 81.06 °W | Updated 14 minutes ago

Overcast
Overcast
69.1 °F
Feels Like 69.1 °F
N
2.2
Wind Variable Wind from SW

Today
High -- | Low -- °F
--% Chance of Precip.
Yesterday
High -- | Low -- °F
Precip. -- in
6:49 AM 7:59 PM
Full, 99% visible
Pressure 30.13 in
Visibility 5.0 miles
Clouds Scattered Clouds 11000 ft
Dew Point 69 °F
Humidity 99%
Rainfall 0.14 in
Snow Depth Not available.
UV 0 out of 12
Pollen 9.70 out of 12
Air Quality Not available.
Flu Activity Not available.
METAR KHLG 301153Z AUTO 13003KT 5SM BR SCT110 19/18 A3014 RMK AO2 SLP201 60053 70053 T01940178 10217 20189 51006
Pressure 30.13 in
Visibility 5.0 miles
Clouds Scattered Clouds 11000 ft
Dew Point 69 °F
Humidity 99%
Rainfall 0.14 in
Snow Depth Not available.
UV 0 out of 12
Pollen 9.70 out of 12
Air Quality Not available.
Flu Activity Not available.
METAR KHLG 301153Z AUTO 13003KT 5SM BR SCT110 19/18 A3014 RMK AO2 SLP201 60053 70053 T01940178 10217 20189 51006

10-Day Weather Forecast

×

Almanac

Astronomy

Aug. 30, 2015 Rise Set
Actual Time
Civil Twilight
Nautical Twilight
Astronomical Twilight
Moon
Length of Visible Light
Length of Day
Tomorrow will be .
, % of the Moon is Illuminated

Today's Extremes

State Highs State Lows

Community

WunderPhotos

Upload Photos

1,850,936 photos uploaded!

WunderBlogs® & News

Nearby

Air Quality

  Air Quality AQ Index Pollutant
Not available.

Snow Depth

Station Depth Elevation

Earthquake Activity

City Distance Mag. Time & Date
Minimum magnitude displayed is 2.5.

Coastal Water Temperatures

Place Temperature

Stations

Nearby Weather Stations

Station Location Temp. Windchill Dew Point Humidity Wind Precip. Elev Updated Type